createdAt,value
2022-07-29T00:02:03.433Z,4.32
2022-07-29T00:04:33.491Z,3.22
2022-07-29T00:07:03.502Z,3.03
2022-07-29T00:09:50.407Z,3.17
2022-07-29T00:12:27.065Z,2.88
2022-07-29T00:14:58.164Z,2.67
2022-07-29T00:17:28.488Z,2.75
2022-07-29T00:19:58.373Z,2.70
2022-07-29T00:22:28.190Z,3.20
2022-07-29T00:24:57.989Z,2.42
2022-07-29T00:27:27.785Z,2.42
2022-07-29T00:29:57.645Z,2.90
2022-07-29T00:32:27.485Z,2.53
2022-07-29T00:35:16.018Z,1.83
2022-07-29T00:37:46.304Z,1.48
2022-07-29T00:40:16.155Z,1.80
2022-07-29T00:42:51.411Z,1.67
2022-07-29T00:45:22.354Z,1.63
2022-07-29T00:47:53.062Z,1.20
2022-07-29T00:50:23.388Z,1.20
2022-07-29T00:52:54.270Z,1.42
2022-07-29T00:55:24.512Z,1.40
2022-07-29T00:57:56.213Z,1.42
2022-07-29T01:00:29.393Z,0.90
2022-07-29T01:03:00.037Z,1.00
2022-07-29T01:05:50.106Z,0.93
2022-07-29T01:08:22.675Z,1.10
2022-07-29T01:10:54.739Z,0.90
2022-07-29T01:13:25.230Z,0.98
2022-07-29T01:16:04.033Z,1.38
2022-07-29T01:18:40.294Z,1.27
2022-07-29T01:21:38.861Z,0.90
2022-07-29T01:24:12.879Z,1.20
2022-07-29T01:27:09.599Z,1.30
2022-07-29T01:29:46.473Z,0.85
2022-07-29T01:32:28.639Z,0.50
2022-07-29T01:35:24.792Z,0.25
2022-07-29T01:38:08.331Z,0.20
2022-07-29T01:40:44.012Z,0.47
2022-07-29T01:43:19.751Z,0.30
2022-07-29T01:45:55.441Z,0.13
2022-07-29T01:48:42.031Z,0.20
2022-07-29T01:51:46.096Z,0.10
2022-07-29T01:54:21.498Z,0.30
2022-07-29T01:56:54.052Z,0.30
2022-07-29T01:59:26.105Z,0.20
2022-07-29T02:02:00.805Z,0.30
2022-07-29T02:04:32.684Z,0.17
2022-07-29T02:07:07.568Z,0.30
2022-07-29T02:09:40.416Z,0.20
2022-07-29T02:12:12.068Z,0.60
2022-07-29T02:14:47.305Z,0.30
2022-07-29T02:17:23.425Z,0.20
2022-07-29T02:19:56.209Z,0.22
2022-07-29T02:22:27.867Z,0.10
2022-07-29T02:24:59.666Z,0.28
2022-07-29T02:27:32.175Z,0.13
2022-07-29T02:30:05.344Z,0.30
2022-07-29T02:32:37.905Z,0.20
2022-07-29T02:35:11.887Z,0.20
2022-07-29T02:37:44.204Z,0.30
2022-07-29T02:40:17.714Z,0.30
2022-07-29T02:42:49.702Z,0.35
2022-07-29T02:45:19.918Z,0.50
2022-07-29T02:47:53.026Z,0.57
2022-07-29T02:50:40.746Z,0.80
2022-07-29T02:53:18.474Z,0.75
2022-07-29T02:56:01.502Z,0.85
2022-07-29T02:58:36.747Z,1.70
2022-07-29T03:01:20.971Z,1.02
2022-07-29T03:03:54.263Z,1.38
2022-07-29T03:06:28.810Z,1.23
2022-07-29T03:09:13.496Z,1.35
2022-07-29T03:11:48.021Z,1.27
2022-07-29T03:14:22.037Z,1.02
2022-07-29T03:16:53.581Z,1.20
2022-07-29T03:19:23.674Z,1.48
2022-07-29T03:21:53.757Z,1.20
2022-07-29T03:24:34.979Z,0.98
2022-07-29T03:27:06.371Z,0.80
2022-07-29T03:29:36.777Z,1.20
2022-07-29T03:32:09.034Z,1.00
2022-07-29T03:34:40.301Z,1.02
2022-07-29T03:37:11.363Z,1.23
2022-07-29T03:39:43.933Z,0.88
2022-07-29T03:42:18.085Z,0.50
2022-07-29T03:44:50.853Z,0.77
2022-07-29T03:47:35.518Z,0.60
2022-07-29T03:50:17.454Z,0.60
2022-07-29T03:52:48.556Z,0.70
2022-07-29T03:55:19.261Z,0.50
2022-07-29T03:57:50.897Z,0.50
2022-07-29T04:00:22.501Z,0.55
2022-07-29T04:02:53.187Z,0.30
2022-07-29T04:05:23.355Z,0.50
2022-07-29T04:07:53.058Z,0.70
2022-07-29T04:10:29.387Z,0.40
2022-07-29T04:13:02.749Z,0.43
2022-07-29T04:15:32.695Z,0.50
2022-07-29T04:18:02.701Z,0.52
2022-07-29T04:20:32.588Z,0.60
2022-07-29T04:23:02.534Z,0.50
2022-07-29T04:25:32.270Z,0.32
2022-07-29T04:28:05.027Z,0.30
2022-07-29T04:30:37.059Z,0.80
2022-07-29T04:33:09.025Z,0.40
2022-07-29T04:35:50.623Z,0.40
2022-07-29T04:38:22.655Z,0.57
2022-07-29T04:40:52.376Z,0.60
2022-07-29T04:45:53.575Z,0.60
2022-07-29T04:50:59.391Z,0.70
2022-07-29T04:53:29.278Z,0.88
2022-07-29T04:58:28.910Z,0.70
2022-07-29T05:00:59.520Z,0.52
2022-07-29T05:03:29.247Z,0.63
2022-07-29T05:05:58.971Z,0.50
2022-07-29T05:08:28.727Z,0.43
2022-07-29T05:10:58.824Z,0.45
2022-07-29T05:13:45.939Z,0.50
2022-07-29T05:16:17.304Z,0.38
2022-07-29T05:18:47.136Z,0.50
2022-07-29T05:21:17.278Z,0.60
2022-07-29T05:23:47.050Z,0.52
2022-07-29T05:26:16.743Z,0.20
2022-07-29T05:28:46.518Z,0.50
2022-07-29T05:31:16.698Z,0.40
2022-07-29T05:33:46.511Z,0.47
2022-07-29T05:36:16.220Z,0.50
2022-07-29T05:38:46.563Z,0.40
2022-07-29T05:41:16.381Z,0.60
2022-07-29T05:46:16.186Z,0.40
2022-07-29T05:48:46.218Z,0.30
2022-07-29T05:53:46.706Z,0.50
2022-07-29T05:56:16.433Z,0.40
2022-07-29T05:58:47.043Z,0.57
2022-07-29T06:01:16.947Z,0.20
2022-07-29T06:03:46.864Z,0.57
2022-07-29T06:08:45.806Z,0.77
2022-07-29T06:11:15.749Z,0.57
2022-07-29T06:13:45.525Z,0.80
2022-07-29T06:16:15.799Z,0.80
2022-07-29T06:18:59.755Z,0.60
2022-07-29T06:21:29.536Z,0.70
2022-07-29T06:23:59.232Z,0.60
2022-07-29T06:26:31.383Z,0.50
2022-07-29T06:29:01.888Z,0.60
2022-07-29T06:31:32.556Z,0.65
2022-07-29T06:34:02.478Z,0.77
2022-07-29T06:36:36.836Z,0.75
2022-07-29T06:39:09.253Z,0.75
2022-07-29T06:41:39.368Z,0.70
2022-07-29T06:44:12.998Z,1.00
2022-07-29T06:46:43.767Z,0.82
2022-07-29T06:49:15.453Z,1.02
2022-07-29T06:51:47.036Z,0.73
2022-07-29T06:54:17.404Z,0.90
2022-07-29T06:56:47.524Z,0.65
2022-07-29T06:59:17.623Z,0.80
2022-07-29T07:01:47.522Z,1.00
2022-07-29T07:04:18.136Z,0.90
2022-07-29T07:06:48.152Z,1.10
2022-07-29T07:09:18.041Z,0.88
2022-07-29T07:14:20.773Z,0.75
2022-07-29T07:16:52.664Z,0.90
2022-07-29T07:19:24.645Z,1.00
2022-07-29T07:21:55.816Z,1.05
2022-07-29T07:24:25.530Z,0.90
2022-07-29T07:26:56.183Z,0.40
2022-07-29T07:29:26.687Z,1.05
2022-07-29T07:32:00.915Z,0.88
2022-07-29T07:34:32.247Z,0.70
2022-07-29T07:37:02.444Z,0.75
2022-07-29T07:39:32.176Z,1.00
2022-07-29T07:44:32.323Z,0.70
2022-07-29T07:49:38.786Z,0.95
2022-07-29T07:52:11.534Z,0.82
2022-07-29T07:54:41.352Z,0.73
2022-07-29T07:57:11.676Z,0.90
2022-07-29T07:59:41.764Z,0.80
2022-07-29T08:02:12.586Z,1.00
2022-07-29T08:04:42.881Z,1.00
2022-07-29T08:07:12.927Z,0.80
2022-07-29T08:09:42.666Z,0.77
2022-07-29T08:12:13.089Z,1.23
2022-07-29T08:14:42.981Z,0.80
2022-07-29T08:17:13.559Z,0.63
2022-07-29T08:19:43.360Z,0.60
2022-07-29T08:22:15.685Z,0.70
2022-07-29T08:24:45.452Z,1.30
2022-07-29T08:27:41.975Z,0.93
2022-07-29T08:30:06.933Z,0.90
2022-07-29T08:32:53.352Z,0.88
2022-07-29T08:35:26.897Z,0.88
2022-07-29T08:37:58.836Z,0.80
2022-07-29T08:40:32.632Z,0.98
2022-07-29T08:43:12.076Z,0.90
2022-07-29T08:45:54.458Z,0.63
2022-07-29T08:48:26.853Z,0.98
2022-07-29T08:50:59.255Z,0.90
2022-07-29T08:53:31.125Z,0.77
2022-07-29T08:56:02.818Z,4.22
2022-07-29T08:58:37.015Z,1.20
2022-07-29T09:01:11.097Z,0.75
2022-07-29T09:03:43.997Z,1.92
2022-07-29T09:06:19.537Z,0.82
2022-07-29T09:08:50.792Z,1.00
2022-07-29T09:11:20.971Z,1.13
2022-07-29T09:13:51.713Z,0.75
2022-07-29T09:16:43.833Z,1.77
2022-07-29T09:19:30.028Z,0.90
2022-07-29T09:22:04.075Z,0.90
2022-07-29T09:24:49.448Z,0.95
2022-07-29T09:27:22.930Z,1.42
2022-07-29T09:30:13.164Z,1.40
2022-07-29T09:33:03.319Z,1.17
2022-07-29T09:35:34.479Z,1.20
2022-07-29T09:38:15.152Z,1.83
2022-07-29T09:40:59.973Z,1.70
2022-07-29T09:43:36.669Z,1.63
2022-07-29T09:46:14.787Z,1.58
2022-07-29T09:48:44.733Z,1.00
2022-07-29T09:51:26.876Z,1.30
2022-07-29T09:53:59.931Z,1.65
2022-07-29T09:59:14.178Z,1.42
2022-07-29T10:01:44.367Z,1.20
2022-07-29T10:07:04.878Z,1.80
2022-07-29T10:09:36.605Z,1.92
2022-07-29T10:12:18.502Z,1.80
2022-07-29T10:14:49.851Z,1.60
2022-07-29T10:17:21.332Z,1.90
2022-07-29T10:19:51.877Z,1.42
2022-07-29T10:22:50.365Z,1.67
2022-07-29T10:25:12.672Z,1.50
2022-07-29T10:27:42.483Z,2.80
2022-07-29T10:32:54.079Z,1.90
2022-07-29T10:36:00.414Z,1.02
2022-07-29T10:38:57.342Z,0.70
2022-07-29T10:41:43.894Z,1.85
2022-07-29T10:44:23.129Z,0.95
2022-07-29T10:46:54.513Z,1.77
2022-07-29T10:49:30.436Z,1.58
2022-07-29T10:54:43.745Z,1.70
2022-07-29T10:57:25.590Z,1.42
2022-07-29T11:00:18.221Z,1.70
2022-07-29T11:02:53.289Z,1.20
2022-07-29T11:05:39.773Z,1.38
2022-07-29T11:08:20.553Z,1.00
2022-07-29T11:10:52.462Z,0.80
2022-07-29T11:13:50.644Z,1.42
2022-07-29T11:16:25.093Z,1.75
2022-07-29T11:22:11.954Z,1.48
2022-07-29T11:24:50.449Z,0.88
2022-07-29T11:27:28.579Z,1.17
2022-07-29T11:30:03.641Z,1.58
2022-07-29T11:32:44.820Z,1.25
2022-07-29T11:35:37.653Z,1.83
2022-07-29T11:38:27.926Z,1.60
2022-07-29T11:41:27.199Z,1.13
2022-07-29T11:44:02.382Z,1.77
2022-07-29T11:46:50.829Z,2.20
2022-07-29T11:49:32.506Z,1.13
2022-07-29T11:54:58.328Z,1.33
2022-07-29T11:57:37.195Z,1.30
2022-07-29T12:00:12.617Z,1.55
2022-07-29T12:02:45.966Z,1.20
2022-07-29T12:05:35.927Z,1.30
2022-07-29T12:07:03.869Z,1.25
2022-07-29T12:08:15.657Z,1.35
2022-07-29T12:10:46.123Z,1.67
2022-07-29T12:13:20.631Z,1.30
2022-07-29T12:16:01.144Z,0.70
2022-07-29T12:18:32.357Z,1.83
2022-07-29T12:21:06.572Z,0.80
2022-07-29T12:23:36.967Z,1.20
2022-07-29T12:26:10.536Z,1.20
2022-07-29T12:28:41.876Z,0.90
2022-07-29T12:31:43.517Z,1.33
2022-07-29T12:34:08.796Z,0.52
2022-07-29T12:36:40.484Z,1.23
2022-07-29T12:39:11.716Z,5.85
2022-07-29T12:41:41.912Z,0.95
2022-07-29T12:44:12.145Z,0.93
2022-07-29T12:46:41.979Z,1.67
2022-07-29T12:49:12.191Z,1.20
2022-07-29T12:51:42.815Z,0.50
2022-07-29T12:54:18.067Z,0.65
2022-07-29T12:56:48.290Z,0.80
2022-07-29T12:59:22.814Z,1.05
2022-07-29T13:01:54.836Z,1.00
2022-07-29T13:04:34.266Z,1.40
2022-07-29T13:07:07.609Z,1.75
2022-07-29T13:09:42.486Z,0.85
2022-07-29T13:12:14.935Z,0.90
2022-07-29T13:14:50.751Z,1.50
2022-07-29T13:19:55.565Z,1.05
2022-07-29T13:22:26.977Z,0.80
2022-07-29T13:24:59.013Z,0.80
2022-07-29T13:27:31.583Z,0.93
2022-07-29T13:30:03.473Z,1.00
2022-07-29T13:32:35.868Z,1.00
2022-07-29T13:35:08.593Z,1.00
2022-07-29T13:37:42.302Z,0.93
2022-07-29T13:40:14.431Z,0.88
2022-07-29T13:42:45.088Z,0.75
2022-07-29T13:45:15.085Z,0.68
2022-07-29T13:52:50.418Z,0.80
2022-07-29T13:55:21.629Z,0.68
2022-07-29T13:57:51.786Z,0.70
2022-07-29T14:02:51.113Z,0.60
2022-07-29T14:07:50.450Z,0.70
2022-07-29T14:10:20.355Z,0.20
2022-07-29T14:12:50.187Z,0.68
2022-07-29T14:17:49.219Z,0.70
2022-07-29T14:22:48.386Z,0.80
2022-07-29T14:27:51.147Z,0.70
2022-07-29T14:32:50.204Z,0.52
2022-07-29T14:37:49.197Z,0.60
2022-07-29T14:42:48.153Z,0.60
2022-07-29T14:45:17.966Z,0.40
2022-07-29T14:50:17.551Z,0.60
2022-07-29T14:53:04.918Z,0.57
2022-07-29T14:55:35.256Z,0.40
2022-07-29T14:58:10.977Z,1.17
2022-07-29T15:00:43.699Z,0.88
2022-07-29T15:03:14.030Z,0.80
2022-07-29T15:05:54.313Z,0.73
2022-07-29T15:08:26.624Z,0.68
2022-07-29T15:10:56.736Z,0.93
2022-07-29T15:13:27.294Z,0.75
2022-07-29T15:16:00.176Z,1.00
2022-07-29T15:18:30.489Z,2.53
2022-07-29T15:21:02.660Z,0.90
2022-07-29T15:23:32.864Z,1.23
2022-07-29T15:28:31.932Z,0.77
2022-07-29T15:31:01.731Z,0.63
2022-07-29T15:36:00.652Z,0.80
2022-07-29T15:38:30.455Z,1.52
2022-07-29T15:43:29.406Z,1.45
2022-07-29T15:48:47.441Z,0.60
2022-07-29T15:51:18.586Z,0.80
2022-07-29T15:56:23.770Z,0.82
2022-07-29T15:58:53.853Z,0.77
2022-07-29T16:01:24.596Z,0.70
2022-07-29T16:03:55.426Z,0.80
2022-07-29T16:06:25.769Z,0.80
2022-07-29T16:08:56.933Z,0.82
2022-07-29T16:11:27.274Z,0.55
2022-07-29T16:13:57.112Z,0.55
2022-07-29T16:16:27.229Z,0.90
2022-07-29T16:18:57.574Z,0.90
2022-07-29T16:21:27.536Z,0.50
2022-07-29T16:23:57.431Z,0.60
2022-07-29T16:26:27.178Z,0.60
2022-07-29T16:28:57.038Z,0.75
2022-07-29T16:31:27.860Z,0.75
2022-07-29T16:33:58.330Z,1.10
2022-07-29T16:36:28.121Z,0.60
2022-07-29T16:38:58.175Z,0.52
2022-07-29T16:41:28.010Z,1.00
2022-07-29T16:43:57.832Z,0.80
2022-07-29T16:46:28.029Z,0.82
2022-07-29T16:48:57.826Z,0.77
2022-07-29T16:51:27.779Z,1.20
2022-07-29T16:56:26.805Z,0.60
2022-07-29T17:01:26.668Z,0.70
2022-07-29T17:04:08.273Z,0.82
2022-07-29T17:06:40.309Z,0.90
2022-07-29T17:09:12.005Z,0.90
2022-07-29T17:11:53.865Z,2.70
2022-07-29T17:14:28.134Z,0.82
2022-07-29T17:17:03.789Z,0.80
2022-07-29T17:19:36.505Z,1.20
2022-07-29T17:22:17.116Z,0.80
2022-07-29T17:24:50.614Z,0.57
2022-07-29T17:27:20.913Z,0.50
2022-07-29T17:29:51.775Z,0.80
2022-07-29T17:32:21.499Z,1.73
2022-07-29T17:34:51.267Z,0.90
2022-07-29T17:39:50.388Z,0.80
2022-07-29T17:44:49.342Z,1.30
2022-07-29T17:49:49.800Z,1.30
2022-07-29T17:52:19.906Z,0.93
2022-07-29T17:54:50.363Z,1.17
2022-07-29T17:57:20.096Z,1.20
2022-07-29T18:02:20.207Z,0.80
2022-07-29T18:04:50.648Z,0.90
2022-07-29T18:07:20.578Z,0.82
2022-07-29T18:12:19.569Z,0.80
2022-07-29T18:17:19.541Z,0.77
2022-07-29T18:19:49.900Z,0.60
2022-07-29T18:22:20.800Z,0.68
2022-07-29T18:24:50.616Z,0.52
2022-07-29T18:27:20.387Z,0.80
2022-07-29T18:32:29.153Z,1.52
2022-07-29T18:35:03.601Z,1.35
2022-07-29T18:38:00.763Z,0.90
2022-07-29T18:40:27.645Z,1.38
2022-07-29T18:42:59.538Z,1.00
2022-07-29T18:45:29.377Z,0.95
2022-07-29T18:48:03.564Z,0.77
2022-07-29T18:50:33.340Z,1.10
2022-07-29T18:55:34.510Z,0.60
2022-07-29T18:58:04.342Z,1.38
2022-07-29T19:00:34.068Z,1.85
2022-07-29T19:05:34.664Z,0.95
2022-07-29T19:08:04.472Z,0.90
2022-07-29T19:10:34.180Z,1.30
2022-07-29T19:13:03.914Z,0.80
2022-07-29T19:18:03.183Z,1.42
2022-07-29T19:20:33.906Z,1.50
2022-07-29T19:23:04.971Z,1.05
2022-07-29T19:25:35.779Z,1.10
2022-07-29T19:28:07.124Z,0.85
2022-07-29T19:30:37.195Z,0.70
2022-07-29T19:33:07.870Z,0.75
2022-07-29T19:35:39.754Z,1.25
2022-07-29T19:38:09.634Z,2.50
2022-07-29T19:43:49.638Z,0.80
2022-07-29T19:46:00.964Z,1.48
2022-07-29T19:51:00.858Z,1.00
2022-07-29T19:53:30.920Z,0.85
2022-07-29T19:56:00.689Z,0.90
2022-07-29T20:00:59.629Z,1.33
2022-07-29T20:05:58.895Z,1.58
2022-07-29T20:08:29.633Z,1.30
2022-07-29T20:10:59.405Z,1.50
2022-07-29T20:15:58.980Z,1.20
2022-07-29T20:18:28.854Z,1.40
2022-07-29T20:23:28.725Z,1.10
2022-07-29T20:26:08.721Z,1.08
2022-07-29T20:28:41.265Z,2.20
2022-07-29T20:31:11.240Z,1.50
2022-07-29T20:36:10.552Z,0.90
2022-07-29T20:38:40.643Z,1.23
2022-07-29T20:41:10.433Z,3.20
2022-07-29T20:46:09.468Z,1.70
2022-07-29T20:51:11.142Z,1.40
2022-07-29T20:53:42.186Z,1.27
2022-07-29T20:56:13.530Z,1.70
2022-07-29T20:58:43.994Z,1.40
2022-07-29T21:03:43.202Z,1.27
2022-07-29T21:06:12.988Z,1.02
2022-07-29T21:08:43.075Z,1.52
2022-07-29T21:11:13.036Z,3.30
2022-07-29T21:13:43.531Z,1.33
2022-07-29T21:16:19.659Z,1.40
2022-07-29T21:18:49.963Z,1.40
2022-07-29T21:21:19.844Z,1.23
2022-07-29T21:23:50.050Z,1.30
2022-07-29T21:26:19.847Z,1.15
2022-07-29T21:28:50.138Z,1.33
2022-07-29T21:31:20.545Z,1.60
2022-07-29T21:33:51.362Z,1.73
2022-07-29T21:36:47.267Z,6.20
2022-07-29T21:39:11.265Z,1.75
2022-07-29T21:41:40.983Z,1.70
2022-07-29T21:44:10.707Z,2.13
2022-07-29T21:46:40.413Z,2.28
2022-07-29T21:49:10.180Z,2.10
2022-07-29T21:54:09.543Z,2.30
2022-07-29T21:56:39.968Z,1.73
2022-07-29T21:59:10.406Z,1.83
2022-07-29T22:01:42.751Z,2.15
2022-07-29T22:04:12.532Z,2.33
2022-07-29T22:06:42.506Z,2.22
2022-07-29T22:09:12.261Z,1.80
2022-07-29T22:11:43.103Z,1.83
2022-07-29T22:14:13.540Z,1.83
2022-07-29T22:16:43.771Z,1.98
2022-07-29T22:19:14.419Z,2.17
2022-07-29T22:21:44.306Z,2.10
2022-07-29T22:26:43.222Z,2.20
2022-07-29T22:29:13.122Z,2.60
2022-07-29T22:34:14.424Z,2.65
2022-07-29T22:36:44.960Z,2.53
2022-07-29T22:39:16.179Z,2.83
2022-07-29T22:41:46.514Z,3.42
2022-07-29T22:44:16.346Z,4.00
2022-07-29T22:49:15.535Z,2.70
2022-07-29T22:54:15.053Z,2.67
2022-07-29T22:56:44.827Z,3.67
2022-07-29T22:59:14.640Z,4.72
2022-07-29T23:04:13.995Z,3.88
2022-07-29T23:06:43.928Z,4.00
2022-07-29T23:11:42.884Z,3.67
2022-07-29T23:14:13.080Z,4.40
2022-07-29T23:16:42.949Z,4.53
2022-07-29T23:21:43.003Z,4.43
2022-07-29T23:24:13.071Z,4.22
2022-07-29T23:26:42.894Z,3.72
2022-07-29T23:31:48.057Z,4.10
2022-07-29T23:34:19.555Z,4.00
2022-07-29T23:36:49.476Z,3.90
2022-07-29T23:39:19.306Z,3.60
2022-07-29T23:41:49.213Z,4.82
2022-07-29T23:46:49.482Z,3.53
2022-07-29T23:49:19.315Z,3.38
2022-07-29T23:54:22.088Z,2.97
2022-07-29T23:56:52.125Z,4.28
2022-07-29T23:59:21.873Z,3.70
